sensor_id;sensor_type;location;lat;lon;timestamp;P1;durP1;ratioP1;P2;durP2;ratioP2
67037;SDS011;53940;53.204;6.590;2022-12-18T00:01:59;2.35;;;1.35;;
67037;SDS011;53940;53.204;6.590;2022-12-18T00:04:59;2.45;;;1.55;;
67037;SDS011;53940;53.204;6.590;2022-12-18T00:07:59;2.42;;;1.60;;
67037;SDS011;53940;53.204;6.590;2022-12-18T00:11:07;2.08;;;1.40;;
67037;SDS011;53940;53.204;6.590;2022-12-18T00:14:09;2.13;;;1.50;;
67037;SDS011;53940;53.204;6.590;2022-12-18T00:17:11;2.33;;;1.55;;
67037;SDS011;53940;53.204;6.590;2022-12-18T00:20:12;2.38;;;1.50;;
67037;SDS011;53940;53.204;6.590;2022-12-18T00:23:12;2.45;;;1.60;;
67037;SDS011;53940;53.204;6.590;2022-12-18T00:26:13;2.22;;;1.58;;
67037;SDS011;53940;53.204;6.590;2022-12-18T00:29:18;2.60;;;1.80;;
67037;SDS011;53940;53.204;6.590;2022-12-18T00:32:19;2.15;;;1.45;;
67037;SDS011;53940;53.204;6.590;2022-12-18T00:35:19;2.90;;;1.42;;
67037;SDS011;53940;53.204;6.590;2022-12-18T00:38:20;2.50;;;1.63;;
67037;SDS011;53940;53.204;6.590;2022-12-18T00:41:20;2.20;;;1.65;;
67037;SDS011;53940;53.204;6.590;2022-12-18T00:44:40;2.60;;;1.92;;
67037;SDS011;53940;53.204;6.590;2022-12-18T00:47:40;2.72;;;1.70;;
67037;SDS011;53940;53.204;6.590;2022-12-18T00:50:40;2.90;;;1.70;;
67037;SDS011;53940;53.204;6.590;2022-12-18T00:53:41;3.45;;;1.83;;
67037;SDS011;53940;53.204;6.590;2022-12-18T00:56:41;2.92;;;2.00;;
67037;SDS011;53940;53.204;6.590;2022-12-18T00:59:41;3.05;;;2.20;;
67037;SDS011;53940;53.204;6.590;2022-12-18T01:02:42;3.72;;;2.60;;
67037;SDS011;53940;53.204;6.590;2022-12-18T01:05:42;3.33;;;2.38;;
67037;SDS011;53940;53.204;6.590;2022-12-18T01:08:43;3.08;;;2.10;;
67037;SDS011;53940;53.204;6.590;2022-12-18T01:11:43;2.97;;;2.50;;
67037;SDS011;53940;53.204;6.590;2022-12-18T01:14:43;3.63;;;2.60;;
67037;SDS011;53940;53.204;6.590;2022-12-18T01:17:44;3.47;;;2.58;;
67037;SDS011;53940;53.204;6.590;2022-12-18T01:20:44;3.92;;;3.10;;
67037;SDS011;53940;53.204;6.590;2022-12-18T01:23:45;3.58;;;2.85;;
67037;SDS011;53940;53.204;6.590;2022-12-18T01:26:46;4.63;;;3.15;;
67037;SDS011;53940;53.204;6.590;2022-12-18T01:29:46;4.25;;;3.10;;
67037;SDS011;53940;53.204;6.590;2022-12-18T01:32:47;4.13;;;3.53;;
67037;SDS011;53940;53.204;6.590;2022-12-18T01:35:47;4.13;;;2.90;;
67037;SDS011;53940;53.204;6.590;2022-12-18T01:38:48;4.13;;;3.53;;
67037;SDS011;53940;53.204;6.590;2022-12-18T01:41:49;4.10;;;3.53;;
67037;SDS011;53940;53.204;6.590;2022-12-18T01:48:03;5.10;;;3.47;;
67037;SDS011;53940;53.204;6.590;2022-12-18T01:51:09;4.50;;;3.53;;
67037;SDS011;53940;53.204;6.590;2022-12-18T01:54:11;4.80;;;4.00;;
67037;SDS011;53940;53.204;6.590;2022-12-18T01:57:11;4.88;;;3.78;;
67037;SDS011;53940;53.204;6.590;2022-12-18T02:00:13;4.63;;;3.75;;
67037;SDS011;53940;53.204;6.590;2022-12-18T02:03:15;5.30;;;4.13;;
67037;SDS011;53940;53.204;6.590;2022-12-18T02:06:17;5.03;;;4.03;;
67037;SDS011;53940;53.204;6.590;2022-12-18T02:09:27;5.03;;;3.95;;
67037;SDS011;53940;53.204;6.590;2022-12-18T02:15:44;4.63;;;3.58;;
67037;SDS011;53940;53.204;6.590;2022-12-18T02:18:57;4.95;;;3.70;;
67037;SDS011;53940;53.204;6.590;2022-12-18T02:29:33;5.80;;;4.32;;
67037;SDS011;53940;53.204;6.590;2022-12-18T02:32:39;5.28;;;3.75;;
67037;SDS011;53940;53.204;6.590;2022-12-18T02:35:44;5.80;;;4.40;;
67037;SDS011;53940;53.204;6.590;2022-12-18T02:38:45;5.13;;;3.80;;
67037;SDS011;53940;53.204;6.590;2022-12-18T02:41:47;5.53;;;4.30;;
67037;SDS011;53940;53.204;6.590;2022-12-18T02:44:49;5.45;;;4.20;;
67037;SDS011;53940;53.204;6.590;2022-12-18T02:47:51;5.05;;;3.90;;
67037;SDS011;53940;53.204;6.590;2022-12-18T02:50:55;6.25;;;4.82;;
67037;SDS011;53940;53.204;6.590;2022-12-18T02:54:09;6.20;;;4.95;;
67037;SDS011;53940;53.204;6.590;2022-12-18T02:57:40;5.80;;;4.53;;
67037;SDS011;53940;53.204;6.590;2022-12-18T03:01:12;6.05;;;4.95;;
67037;SDS011;53940;53.204;6.590;2022-12-18T03:07:25;5.85;;;4.72;;
67037;SDS011;53940;53.204;6.590;2022-12-18T03:10:34;6.00;;;4.80;;
67037;SDS011;53940;53.204;6.590;2022-12-18T03:13:50;6.68;;;5.45;;
67037;SDS011;53940;53.204;6.590;2022-12-18T03:16:57;5.60;;;4.75;;
67037;SDS011;53940;53.204;6.590;2022-12-18T03:20:06;6.45;;;5.32;;
67037;SDS011;53940;53.204;6.590;2022-12-18T03:23:11;6.10;;;5.03;;
67037;SDS011;53940;53.204;6.590;2022-12-18T03:26:17;6.57;;;5.82;;
67037;SDS011;53940;53.204;6.590;2022-12-18T03:29:25;6.65;;;5.00;;
67037;SDS011;53940;53.204;6.590;2022-12-18T03:32:31;6.35;;;5.30;;
67037;SDS011;53940;53.204;6.590;2022-12-18T03:35:39;6.35;;;4.85;;
67037;SDS011;53940;53.204;6.590;2022-12-18T03:38:42;7.20;;;5.97;;
67037;SDS011;53940;53.204;6.590;2022-12-18T03:41:43;7.13;;;5.57;;
67037;SDS011;53940;53.204;6.590;2022-12-18T03:44:57;6.53;;;5.20;;
67037;SDS011;53940;53.204;6.590;2022-12-18T03:51:52;5.75;;;5.15;;
67037;SDS011;53940;53.204;6.590;2022-12-18T03:54:59;6.70;;;5.40;;
67037;SDS011;53940;53.204;6.590;2022-12-18T03:58:01;7.10;;;5.55;;
67037;SDS011;53940;53.204;6.590;2022-12-18T04:01:04;6.97;;;5.65;;
67037;SDS011;53940;53.204;6.590;2022-12-18T04:04:08;6.80;;;5.53;;
67037;SDS011;53940;53.204;6.590;2022-12-18T04:07:10;5.97;;;5.10;;
67037;SDS011;53940;53.204;6.590;2022-12-18T04:10:13;6.10;;;5.05;;
67037;SDS011;53940;53.204;6.590;2022-12-18T04:13:27;6.43;;;4.88;;
67037;SDS011;53940;53.204;6.590;2022-12-18T04:16:28;6.15;;;5.15;;
67037;SDS011;53940;53.204;6.590;2022-12-18T04:19:29;6.15;;;4.72;;
67037;SDS011;53940;53.204;6.590;2022-12-18T04:22:29;6.18;;;4.97;;
67037;SDS011;53940;53.204;6.590;2022-12-18T04:25:30;5.53;;;4.60;;
67037;SDS011;53940;53.204;6.590;2022-12-18T04:28:30;6.45;;;5.00;;
67037;SDS011;53940;53.204;6.590;2022-12-18T04:31:30;5.40;;;4.30;;
67037;SDS011;53940;53.204;6.590;2022-12-18T04:34:31;6.30;;;4.68;;
67037;SDS011;53940;53.204;6.590;2022-12-18T04:37:31;5.32;;;4.40;;
67037;SDS011;53940;53.204;6.590;2022-12-18T04:40:31;6.75;;;5.00;;
67037;SDS011;53940;53.204;6.590;2022-12-18T04:43:32;5.68;;;4.60;;
67037;SDS011;53940;53.204;6.590;2022-12-18T04:46:32;5.45;;;4.40;;
67037;SDS011;53940;53.204;6.590;2022-12-18T04:49:33;5.85;;;4.30;;
67037;SDS011;53940;53.204;6.590;2022-12-18T04:52:33;5.30;;;4.78;;
67037;SDS011;53940;53.204;6.590;2022-12-18T04:55:33;5.82;;;4.80;;
67037;SDS011;53940;53.204;6.590;2022-12-18T04:58:34;5.32;;;4.40;;
67037;SDS011;53940;53.204;6.590;2022-12-18T05:01:35;5.78;;;4.43;;
67037;SDS011;53940;53.204;6.590;2022-12-18T05:04:36;5.55;;;4.40;;
67037;SDS011;53940;53.204;6.590;2022-12-18T05:07:36;5.18;;;4.38;;
67037;SDS011;53940;53.204;6.590;2022-12-18T05:10:36;5.20;;;4.50;;
67037;SDS011;53940;53.204;6.590;2022-12-18T05:13:37;5.15;;;4.15;;
67037;SDS011;53940;53.204;6.590;2022-12-18T05:16:37;5.57;;;4.55;;
67037;SDS011;53940;53.204;6.590;2022-12-18T05:19:38;5.60;;;4.60;;
67037;SDS011;53940;53.204;6.590;2022-12-18T05:22:38;5.28;;;4.50;;
67037;SDS011;53940;53.204;6.590;2022-12-18T05:25:39;5.85;;;4.95;;
67037;SDS011;53940;53.204;6.590;2022-12-18T05:28:39;5.53;;;4.30;;
67037;SDS011;53940;53.204;6.590;2022-12-18T05:31:39;5.95;;;4.53;;
67037;SDS011;53940;53.204;6.590;2022-12-18T05:34:40;5.10;;;4.28;;
67037;SDS011;53940;53.204;6.590;2022-12-18T05:37:40;5.38;;;4.32;;
67037;SDS011;53940;53.204;6.590;2022-12-18T05:40:41;5.07;;;4.10;;
67037;SDS011;53940;53.204;6.590;2022-12-18T05:43:43;5.10;;;4.18;;
67037;SDS011;53940;53.204;6.590;2022-12-18T05:46:43;5.07;;;4.00;;
67037;SDS011;53940;53.204;6.590;2022-12-18T05:49:44;5.63;;;4.53;;
67037;SDS011;53940;53.204;6.590;2022-12-18T05:52:44;5.60;;;4.43;;
67037;SDS011;53940;53.204;6.590;2022-12-18T05:55:45;5.70;;;4.20;;
67037;SDS011;53940;53.204;6.590;2022-12-18T05:58:46;5.38;;;4.25;;
67037;SDS011;53940;53.204;6.590;2022-12-18T06:01:47;5.40;;;4.45;;
67037;SDS011;53940;53.204;6.590;2022-12-18T06:04:48;4.80;;;4.20;;
67037;SDS011;53940;53.204;6.590;2022-12-18T06:07:48;5.10;;;4.18;;
67037;SDS011;53940;53.204;6.590;2022-12-18T06:10:50;5.38;;;4.35;;
67037;SDS011;53940;53.204;6.590;2022-12-18T06:13:53;5.25;;;3.95;;
67037;SDS011;53940;53.204;6.590;2022-12-18T06:16:54;5.28;;;4.20;;
67037;SDS011;53940;53.204;6.590;2022-12-18T06:19:55;5.15;;;4.30;;
67037;SDS011;53940;53.204;6.590;2022-12-18T06:22:55;4.88;;;3.70;;
67037;SDS011;53940;53.204;6.590;2022-12-18T06:25:55;4.97;;;3.85;;
67037;SDS011;53940;53.204;6.590;2022-12-18T06:28:56;4.72;;;3.63;;
67037;SDS011;53940;53.204;6.590;2022-12-18T06:31:56;5.07;;;4.10;;
67037;SDS011;53940;53.204;6.590;2022-12-18T06:34:57;4.70;;;4.00;;
67037;SDS011;53940;53.204;6.590;2022-12-18T06:37:57;5.50;;;4.40;;
67037;SDS011;53940;53.204;6.590;2022-12-18T06:40:57;4.47;;;3.90;;
67037;SDS011;53940;53.204;6.590;2022-12-18T06:43:58;4.95;;;3.97;;
67037;SDS011;53940;53.204;6.590;2022-12-18T06:46:58;5.43;;;3.95;;
67037;SDS011;53940;53.204;6.590;2022-12-18T06:49:58;5.03;;;4.20;;
67037;SDS011;53940;53.204;6.590;2022-12-18T06:52:59;4.32;;;3.55;;
67037;SDS011;53940;53.204;6.590;2022-12-18T06:56:02;5.00;;;3.95;;
67037;SDS011;53940;53.204;6.590;2022-12-18T06:59:04;4.78;;;4.03;;
67037;SDS011;53940;53.204;6.590;2022-12-18T07:02:05;4.78;;;4.05;;
67037;SDS011;53940;53.204;6.590;2022-12-18T07:05:05;4.60;;;3.70;;
67037;SDS011;53940;53.204;6.590;2022-12-18T07:08:06;5.53;;;3.97;;
67037;SDS011;53940;53.204;6.590;2022-12-18T07:11:06;5.25;;;4.50;;
67037;SDS011;53940;53.204;6.590;2022-12-18T07:14:07;4.40;;;3.60;;
67037;SDS011;53940;53.204;6.590;2022-12-18T07:17:07;5.07;;;3.78;;
67037;SDS011;53940;53.204;6.590;2022-12-18T07:20:08;4.88;;;3.53;;
67037;SDS011;53940;53.204;6.590;2022-12-18T07:23:09;5.40;;;3.95;;
67037;SDS011;53940;53.204;6.590;2022-12-18T07:27:27;4.82;;;3.88;;
67037;SDS011;53940;53.204;6.590;2022-12-18T07:30:27;4.43;;;3.83;;
67037;SDS011;53940;53.204;6.590;2022-12-18T07:33:28;5.40;;;3.45;;
67037;SDS011;53940;53.204;6.590;2022-12-18T07:36:28;5.57;;;3.67;;
67037;SDS011;53940;53.204;6.590;2022-12-18T07:39:29;4.47;;;3.38;;
67037;SDS011;53940;53.204;6.590;2022-12-18T07:42:29;4.25;;;3.30;;
67037;SDS011;53940;53.204;6.590;2022-12-18T07:45:32;5.07;;;3.60;;
67037;SDS011;53940;53.204;6.590;2022-12-18T07:48:32;4.35;;;3.30;;
67037;SDS011;53940;53.204;6.590;2022-12-18T07:51:33;4.95;;;3.72;;
67037;SDS011;53940;53.204;6.590;2022-12-18T07:54:33;4.47;;;3.88;;
67037;SDS011;53940;53.204;6.590;2022-12-18T07:57:34;4.07;;;3.20;;
67037;SDS011;53940;53.204;6.590;2022-12-18T08:00:34;5.15;;;3.72;;
67037;SDS011;53940;53.204;6.590;2022-12-18T08:03:35;4.85;;;3.50;;
67037;SDS011;53940;53.204;6.590;2022-12-18T08:06:36;4.60;;;3.42;;
67037;SDS011;53940;53.204;6.590;2022-12-18T08:09:37;4.60;;;3.55;;
67037;SDS011;53940;53.204;6.590;2022-12-18T08:12:37;4.18;;;3.40;;
67037;SDS011;53940;53.204;6.590;2022-12-18T08:15:37;4.03;;;3.28;;
67037;SDS011;53940;53.204;6.590;2022-12-18T08:18:38;4.38;;;3.22;;
67037;SDS011;53940;53.204;6.590;2022-12-18T08:21:38;4.15;;;3.38;;
67037;SDS011;53940;53.204;6.590;2022-12-18T08:24:38;4.03;;;3.28;;
67037;SDS011;53940;53.204;6.590;2022-12-18T08:27:39;4.47;;;3.35;;
67037;SDS011;53940;53.204;6.590;2022-12-18T08:30:39;4.93;;;3.17;;
67037;SDS011;53940;53.204;6.590;2022-12-18T08:33:39;4.22;;;3.20;;
67037;SDS011;53940;53.204;6.590;2022-12-18T08:36:40;4.32;;;3.08;;
67037;SDS011;53940;53.204;6.590;2022-12-18T08:39:41;3.55;;;2.88;;
67037;SDS011;53940;53.204;6.590;2022-12-18T08:42:41;3.83;;;3.00;;
67037;SDS011;53940;53.204;6.590;2022-12-18T08:46:00;5.03;;;2.97;;
67037;SDS011;53940;53.204;6.590;2022-12-18T08:49:01;4.30;;;3.25;;
67037;SDS011;53940;53.204;6.590;2022-12-18T08:52:01;3.95;;;3.20;;
67037;SDS011;53940;53.204;6.590;2022-12-18T08:55:02;4.43;;;3.20;;
67037;SDS011;53940;53.204;6.590;2022-12-18T08:58:03;4.20;;;2.90;;
67037;SDS011;53940;53.204;6.590;2022-12-18T09:01:04;4.20;;;3.30;;
67037;SDS011;53940;53.204;6.590;2022-12-18T09:04:09;4.30;;;2.90;;
67037;SDS011;53940;53.204;6.590;2022-12-18T09:07:10;3.75;;;3.03;;
67037;SDS011;53940;53.204;6.590;2022-12-18T09:10:10;4.80;;;3.28;;
67037;SDS011;53940;53.204;6.590;2022-12-18T09:13:10;4.00;;;3.17;;
67037;SDS011;53940;53.204;6.590;2022-12-18T09:16:12;3.83;;;2.92;;
67037;SDS011;53940;53.204;6.590;2022-12-18T09:19:12;4.28;;;3.05;;
67037;SDS011;53940;53.204;6.590;2022-12-18T09:22:12;4.30;;;3.22;;
67037;SDS011;53940;53.204;6.590;2022-12-18T09:25:13;3.58;;;2.70;;
67037;SDS011;53940;53.204;6.590;2022-12-18T09:28:14;4.20;;;3.50;;
67037;SDS011;53940;53.204;6.590;2022-12-18T09:31:17;5.05;;;3.00;;
67037;SDS011;53940;53.204;6.590;2022-12-18T09:34:19;4.40;;;2.95;;
67037;SDS011;53940;53.204;6.590;2022-12-18T09:37:21;3.97;;;3.00;;
67037;SDS011;53940;53.204;6.590;2022-12-18T09:40:25;3.55;;;2.90;;
67037;SDS011;53940;53.204;6.590;2022-12-18T09:43:41;4.57;;;2.83;;
67037;SDS011;53940;53.204;6.590;2022-12-18T09:46:47;3.10;;;2.55;;
67037;SDS011;53940;53.204;6.590;2022-12-18T09:49:55;4.40;;;2.80;;
67037;SDS011;53940;53.204;6.590;2022-12-18T09:52:59;4.07;;;3.00;;
67037;SDS011;53940;53.204;6.590;2022-12-18T09:56:05;3.57;;;2.17;;
67037;SDS011;53940;53.204;6.590;2022-12-18T09:59:24;4.03;;;3.03;;
67037;SDS011;53940;53.204;6.590;2022-12-18T10:02:30;3.60;;;2.80;;
67037;SDS011;53940;53.204;6.590;2022-12-18T10:12:07;5.35;;;2.97;;
67037;SDS011;53940;53.204;6.590;2022-12-18T10:21:43;3.58;;;2.63;;
67037;SDS011;53940;53.204;6.590;2022-12-18T10:25:04;4.50;;;2.70;;
67037;SDS011;53940;53.204;6.590;2022-12-18T10:28:14;4.45;;;2.92;;
67037;SDS011;53940;53.204;6.590;2022-12-18T10:31:16;4.05;;;2.47;;
67037;SDS011;53940;53.204;6.590;2022-12-18T10:34:20;4.05;;;2.53;;
67037;SDS011;53940;53.204;6.590;2022-12-18T10:37:22;3.67;;;2.75;;
67037;SDS011;53940;53.204;6.590;2022-12-18T10:40:27;5.38;;;2.90;;
67037;SDS011;53940;53.204;6.590;2022-12-18T10:43:29;3.28;;;2.50;;
67037;SDS011;53940;53.204;6.590;2022-12-18T10:46:31;3.53;;;2.65;;
67037;SDS011;53940;53.204;6.590;2022-12-18T10:49:32;4.35;;;2.97;;
67037;SDS011;53940;53.204;6.590;2022-12-18T10:52:35;3.70;;;2.50;;
67037;SDS011;53940;53.204;6.590;2022-12-18T10:55:36;3.67;;;2.92;;
67037;SDS011;53940;53.204;6.590;2022-12-18T10:58:39;4.13;;;2.47;;
67037;SDS011;53940;53.204;6.590;2022-12-18T11:01:56;4.28;;;2.55;;
67037;SDS011;53940;53.204;6.590;2022-12-18T11:07:58;3.50;;;2.50;;
67037;SDS011;53940;53.204;6.590;2022-12-18T11:11:00;2.85;;;2.42;;
67037;SDS011;53940;53.204;6.590;2022-12-18T11:14:05;3.28;;;2.33;;
67037;SDS011;53940;53.204;6.590;2022-12-18T11:17:19;3.03;;;2.30;;
67037;SDS011;53940;53.204;6.590;2022-12-18T11:20:31;3.95;;;2.63;;
67037;SDS011;53940;53.204;6.590;2022-12-18T11:23:34;3.72;;;2.47;;
67037;SDS011;53940;53.204;6.590;2022-12-18T11:26:37;3.58;;;2.20;;
67037;SDS011;53940;53.204;6.590;2022-12-18T11:29:39;3.35;;;2.20;;
67037;SDS011;53940;53.204;6.590;2022-12-18T11:32:40;3.15;;;2.45;;
67037;SDS011;53940;53.204;6.590;2022-12-18T11:35:50;4.65;;;2.63;;
67037;SDS011;53940;53.204;6.590;2022-12-18T11:38:57;2.83;;;2.10;;
67037;SDS011;53940;53.204;6.590;2022-12-18T11:45:24;3.35;;;2.22;;
67037;SDS011;53940;53.204;6.590;2022-12-18T11:48:34;3.00;;;2.22;;
67037;SDS011;53940;53.204;6.590;2022-12-18T11:51:42;3.22;;;2.15;;
67037;SDS011;53940;53.204;6.590;2022-12-18T11:54:52;2.97;;;2.40;;
67037;SDS011;53940;53.204;6.590;2022-12-18T12:04:36;3.40;;;2.17;;
67037;SDS011;53940;53.204;6.590;2022-12-18T12:08:11;2.75;;;1.95;;
67037;SDS011;53940;53.204;6.590;2022-12-18T12:11:22;2.80;;;1.98;;
67037;SDS011;53940;53.204;6.590;2022-12-18T12:14:58;4.38;;;2.28;;
67037;SDS011;53940;53.204;6.590;2022-12-18T12:34:23;3.45;;;2.30;;
67037;SDS011;53940;53.204;6.590;2022-12-18T12:37:32;4.03;;;2.22;;
67037;SDS011;53940;53.204;6.590;2022-12-18T12:40:51;3.60;;;2.05;;
67037;SDS011;53940;53.204;6.590;2022-12-18T12:43:57;3.08;;;1.90;;
67037;SDS011;53940;53.204;6.590;2022-12-18T12:47:00;3.40;;;2.08;;
67037;SDS011;53940;53.204;6.590;2022-12-18T12:50:16;3.60;;;2.20;;
67037;SDS011;53940;53.204;6.590;2022-12-18T12:53:21;2.90;;;2.00;;
67037;SDS011;53940;53.204;6.590;2022-12-18T12:56:31;2.83;;;2.08;;
67037;SDS011;53940;53.204;6.590;2022-12-18T13:03:14;3.20;;;1.90;;
67037;SDS011;53940;53.204;6.590;2022-12-18T13:06:40;3.10;;;2.15;;
67037;SDS011;53940;53.204;6.590;2022-12-18T13:13:19;2.92;;;1.90;;
67037;SDS011;53940;53.204;6.590;2022-12-18T13:16:21;3.00;;;1.90;;
67037;SDS011;53940;53.204;6.590;2022-12-18T13:19:23;3.10;;;2.00;;
67037;SDS011;53940;53.204;6.590;2022-12-18T13:22:36;2.80;;;1.90;;
67037;SDS011;53940;53.204;6.590;2022-12-18T13:25:39;2.75;;;1.92;;
67037;SDS011;53940;53.204;6.590;2022-12-18T13:34:49;5.72;;;2.20;;
67037;SDS011;53940;53.204;6.590;2022-12-18T13:41:35;5.43;;;2.10;;
67037;SDS011;53940;53.204;6.590;2022-12-18T13:44:39;6.72;;;2.17;;
67037;SDS011;53940;53.204;6.590;2022-12-18T13:47:40;4.57;;;2.15;;
67037;SDS011;53940;53.204;6.590;2022-12-18T13:50:48;5.55;;;1.83;;
67037;SDS011;53940;53.204;6.590;2022-12-18T13:53:53;3.78;;;1.80;;
67037;SDS011;53940;53.204;6.590;2022-12-18T13:56:57;3.55;;;1.77;;
67037;SDS011;53940;53.204;6.590;2022-12-18T13:59:57;4.03;;;1.75;;
67037;SDS011;53940;53.204;6.590;2022-12-18T14:02:59;2.63;;;1.60;;
67037;SDS011;53940;53.204;6.590;2022-12-18T14:06:01;2.65;;;1.80;;
67037;SDS011;53940;53.204;6.590;2022-12-18T14:09:05;3.58;;;1.70;;
67037;SDS011;53940;53.204;6.590;2022-12-18T14:12:06;2.78;;;1.83;;
67037;SDS011;53940;53.204;6.590;2022-12-18T14:15:36;3.05;;;1.75;;
67037;SDS011;53940;53.204;6.590;2022-12-18T14:18:48;4.22;;;1.95;;
67037;SDS011;53940;53.204;6.590;2022-12-18T14:21:54;2.95;;;1.67;;
67037;SDS011;53940;53.204;6.590;2022-12-18T14:25:15;3.92;;;1.80;;
67037;SDS011;53940;53.204;6.590;2022-12-18T14:28:17;3.72;;;1.80;;
67037;SDS011;53940;53.204;6.590;2022-12-18T14:31:18;3.13;;;1.60;;
67037;SDS011;53940;53.204;6.590;2022-12-18T14:34:19;2.90;;;1.70;;
67037;SDS011;53940;53.204;6.590;2022-12-18T14:37:26;2.63;;;1.70;;
67037;SDS011;53940;53.204;6.590;2022-12-18T14:40:27;3.17;;;1.80;;
67037;SDS011;53940;53.204;6.590;2022-12-18T14:43:28;3.17;;;1.45;;
67037;SDS011;53940;53.204;6.590;2022-12-18T14:46:35;2.63;;;1.63;;
67037;SDS011;53940;53.204;6.590;2022-12-18T14:49:37;2.55;;;1.50;;
67037;SDS011;53940;53.204;6.590;2022-12-18T14:52:42;3.17;;;1.60;;
67037;SDS011;53940;53.204;6.590;2022-12-18T14:55:45;2.58;;;1.60;;
67037;SDS011;53940;53.204;6.590;2022-12-18T14:58:48;3.25;;;1.60;;
67037;SDS011;53940;53.204;6.590;2022-12-18T15:01:57;2.30;;;1.40;;
67037;SDS011;53940;53.204;6.590;2022-12-18T15:08:02;2.88;;;1.42;;
67037;SDS011;53940;53.204;6.590;2022-12-18T15:11:03;2.90;;;1.63;;
67037;SDS011;53940;53.204;6.590;2022-12-18T15:17:42;2.60;;;1.60;;
67037;SDS011;53940;53.204;6.590;2022-12-18T15:24:00;2.15;;;1.40;;
67037;SDS011;53940;53.204;6.590;2022-12-18T15:27:00;2.67;;;1.65;;
67037;SDS011;53940;53.204;6.590;2022-12-18T15:33:20;2.00;;;1.40;;
67037;SDS011;53940;53.204;6.590;2022-12-18T15:36:25;2.60;;;1.27;;
67037;SDS011;53940;53.204;6.590;2022-12-18T15:39:25;2.03;;;1.35;;
67037;SDS011;53940;53.204;6.590;2022-12-18T15:42:26;2.58;;;1.40;;
67037;SDS011;53940;53.204;6.590;2022-12-18T15:45:44;2.33;;;1.33;;
67037;SDS011;53940;53.204;6.590;2022-12-18T15:48:46;2.13;;;1.27;;
67037;SDS011;53940;53.204;6.590;2022-12-18T15:51:50;2.47;;;1.52;;
67037;SDS011;53940;53.204;6.590;2022-12-18T15:54:53;2.83;;;1.52;;
67037;SDS011;53940;53.204;6.590;2022-12-18T15:58:12;2.20;;;1.30;;
67037;SDS011;53940;53.204;6.590;2022-12-18T16:01:12;1.95;;;1.30;;
67037;SDS011;53940;53.204;6.590;2022-12-18T16:04:14;2.45;;;1.17;;
67037;SDS011;53940;53.204;6.590;2022-12-18T16:07:16;2.45;;;1.38;;
67037;SDS011;53940;53.204;6.590;2022-12-18T16:10:16;2.35;;;1.33;;
67037;SDS011;53940;53.204;6.590;2022-12-18T16:13:17;2.22;;;1.45;;
67037;SDS011;53940;53.204;6.590;2022-12-18T16:16:19;1.38;;;1.00;;
67037;SDS011;53940;53.204;6.590;2022-12-18T16:19:20;2.25;;;1.27;;
67037;SDS011;53940;53.204;6.590;2022-12-18T16:22:22;2.05;;;1.20;;
67037;SDS011;53940;53.204;6.590;2022-12-18T16:25:27;4.03;;;1.30;;
67037;SDS011;53940;53.204;6.590;2022-12-18T16:28:28;7.60;;;1.60;;
67037;SDS011;53940;53.204;6.590;2022-12-18T16:31:28;3.22;;;1.25;;
67037;SDS011;53940;53.204;6.590;2022-12-18T16:34:30;7.63;;;1.52;;
67037;SDS011;53940;53.204;6.590;2022-12-18T16:37:32;3.50;;;1.38;;
67037;SDS011;53940;53.204;6.590;2022-12-18T16:40:32;3.72;;;1.33;;
67037;SDS011;53940;53.204;6.590;2022-12-18T16:43:33;2.63;;;1.17;;
67037;SDS011;53940;53.204;6.590;2022-12-18T16:46:33;1.95;;;1.23;;
67037;SDS011;53940;53.204;6.590;2022-12-18T16:49:34;2.47;;;1.30;;
67037;SDS011;53940;53.204;6.590;2022-12-18T16:52:35;2.40;;;1.23;;
67037;SDS011;53940;53.204;6.590;2022-12-18T16:55:35;4.55;;;1.23;;
67037;SDS011;53940;53.204;6.590;2022-12-18T16:58:36;1.83;;;1.00;;
67037;SDS011;53940;53.204;6.590;2022-12-18T17:01:36;1.98;;;1.23;;
67037;SDS011;53940;53.204;6.590;2022-12-18T17:04:37;3.40;;;1.23;;
67037;SDS011;53940;53.204;6.590;2022-12-18T17:07:37;2.00;;;1.30;;
67037;SDS011;53940;53.204;6.590;2022-12-18T17:10:37;3.97;;;1.30;;
67037;SDS011;53940;53.204;6.590;2022-12-18T17:13:38;2.25;;;1.20;;
67037;SDS011;53940;53.204;6.590;2022-12-18T17:16:38;2.60;;;1.25;;
67037;SDS011;53940;53.204;6.590;2022-12-18T17:19:39;2.10;;;1.20;;
67037;SDS011;53940;53.204;6.590;2022-12-18T17:22:39;2.75;;;1.30;;
67037;SDS011;53940;53.204;6.590;2022-12-18T17:25:40;1.95;;;1.20;;
67037;SDS011;53940;53.204;6.590;2022-12-18T17:28:40;1.85;;;1.08;;
67037;SDS011;53940;53.204;6.590;2022-12-18T17:31:41;2.85;;;1.15;;
67037;SDS011;53940;53.204;6.590;2022-12-18T17:34:42;2.22;;;1.13;;
67037;SDS011;53940;53.204;6.590;2022-12-18T17:37:42;2.08;;;1.10;;
67037;SDS011;53940;53.204;6.590;2022-12-18T17:40:42;2.17;;;1.00;;
67037;SDS011;53940;53.204;6.590;2022-12-18T17:43:43;1.80;;;1.05;;
67037;SDS011;53940;53.204;6.590;2022-12-18T17:46:46;2.30;;;1.20;;
67037;SDS011;53940;53.204;6.590;2022-12-18T17:49:46;2.35;;;1.20;;
67037;SDS011;53940;53.204;6.590;2022-12-18T17:52:47;1.88;;;1.05;;
67037;SDS011;53940;53.204;6.590;2022-12-18T17:55:54;2.70;;;1.35;;
67037;SDS011;53940;53.204;6.590;2022-12-18T17:58:55;2.22;;;0.90;;
67037;SDS011;53940;53.204;6.590;2022-12-18T18:01:55;2.13;;;1.00;;
67037;SDS011;53940;53.204;6.590;2022-12-18T18:04:55;2.33;;;1.00;;
67037;SDS011;53940;53.204;6.590;2022-12-18T18:07:56;1.83;;;1.08;;
67037;SDS011;53940;53.204;6.590;2022-12-18T18:10:57;1.50;;;0.90;;
67037;SDS011;53940;53.204;6.590;2022-12-18T18:14:20;2.17;;;0.98;;
67037;SDS011;53940;53.204;6.590;2022-12-18T18:17:20;1.70;;;1.00;;
67037;SDS011;53940;53.204;6.590;2022-12-18T18:20:21;3.03;;;1.02;;
67037;SDS011;53940;53.204;6.590;2022-12-18T18:23:24;1.60;;;1.00;;
67037;SDS011;53940;53.204;6.590;2022-12-18T18:26:29;1.98;;;0.93;;
67037;SDS011;53940;53.204;6.590;2022-12-18T18:29:30;1.58;;;0.90;;
67037;SDS011;53940;53.204;6.590;2022-12-18T18:32:31;1.90;;;1.00;;
67037;SDS011;53940;53.204;6.590;2022-12-18T18:35:31;1.70;;;1.00;;
67037;SDS011;53940;53.204;6.590;2022-12-18T18:38:32;2.83;;;1.13;;
67037;SDS011;53940;53.204;6.590;2022-12-18T18:41:32;1.33;;;0.90;;
67037;SDS011;53940;53.204;6.590;2022-12-18T18:44:32;1.73;;;1.08;;
67037;SDS011;53940;53.204;6.590;2022-12-18T18:47:33;2.17;;;1.10;;
67037;SDS011;53940;53.204;6.590;2022-12-18T18:50:33;1.70;;;0.80;;
67037;SDS011;53940;53.204;6.590;2022-12-18T18:53:37;2.47;;;1.02;;
67037;SDS011;53940;53.204;6.590;2022-12-18T18:56:38;2.05;;;1.13;;
67037;SDS011;53940;53.204;6.590;2022-12-18T18:59:39;1.45;;;1.00;;
67037;SDS011;53940;53.204;6.590;2022-12-18T19:02:40;1.92;;;1.08;;
67037;SDS011;53940;53.204;6.590;2022-12-18T19:05:40;1.65;;;0.88;;
67037;SDS011;53940;53.204;6.590;2022-12-18T19:08:40;1.83;;;1.00;;
67037;SDS011;53940;53.204;6.590;2022-12-18T19:11:41;1.63;;;1.02;;
67037;SDS011;53940;53.204;6.590;2022-12-18T19:15:00;2.47;;;1.27;;
67037;SDS011;53940;53.204;6.590;2022-12-18T19:18:00;1.55;;;0.95;;
67037;SDS011;53940;53.204;6.590;2022-12-18T19:21:01;1.98;;;1.00;;
67037;SDS011;53940;53.204;6.590;2022-12-18T19:24:03;1.75;;;0.98;;
67037;SDS011;53940;53.204;6.590;2022-12-18T19:27:04;2.03;;;0.98;;
67037;SDS011;53940;53.204;6.590;2022-12-18T19:30:04;1.92;;;1.10;;
67037;SDS011;53940;53.204;6.590;2022-12-18T19:33:05;2.05;;;0.90;;
67037;SDS011;53940;53.204;6.590;2022-12-18T19:36:19;1.73;;;1.00;;
67037;SDS011;53940;53.204;6.590;2022-12-18T19:39:20;2.00;;;1.00;;
67037;SDS011;53940;53.204;6.590;2022-12-18T19:42:21;1.75;;;0.85;;
67037;SDS011;53940;53.204;6.590;2022-12-18T19:45:21;2.50;;;1.08;;
67037;SDS011;53940;53.204;6.590;2022-12-18T19:48:22;1.65;;;0.93;;
67037;SDS011;53940;53.204;6.590;2022-12-18T19:51:23;1.98;;;1.10;;
67037;SDS011;53940;53.204;6.590;2022-12-18T19:54:25;1.48;;;0.93;;
67037;SDS011;53940;53.204;6.590;2022-12-18T19:57:25;2.15;;;1.00;;
67037;SDS011;53940;53.204;6.590;2022-12-18T20:00:26;2.17;;;1.05;;